Terminal Aerodrome Forecast
Issued by NWS Jackson, MS

Home | Current Version | Previous Version | Text Only | Print | Product List | Glossary On
Versions: 1 2 3 4 5 6 7 8 9 10 11 12 13 14 15 16 17
000
FTUS44 KJAN 012327
TAFMEI
TAF
KMEI 012327Z 0200/0224 15005KT P6SM SCT020 BKN120
     FM020800 18004KT P6SM OVC007
     FM021600 21005KT P6SM OVC015
     FM021800 20008KT P6SM VCSH OVC050
     FM022100 24008KT P6SM -SHRA VCTS BKN035CB=

USA.gov is the U.S. government's official web portal to all federal, state and local government web resources and services.